Maria Noelle — WDD9564 — position and weather

sailwx.info

Track history (hours):
 
Tides and Currents Weather Stations Pressure Air Temp Water Temp Dewpoint Dewpoint Depression Visibility Wind Speed Wind Dir Waves Ship Positions

Maria Noelle

Owner: MUROS INC, POINT PLEASANT, NJ. More information available from US FCC via Universal Licensing System and Coast Guard Vessel Documentation Center.

Last reported at 2014-Oct-30 12:04 UTC. Time now 2014-Oct-30 16:43 UTC.
Position N 40°06' W 074°02'.

Length 26 m.

Type: Fishing. MMSI: 367313170.

Date/timePositionNaut miles runAvg speedWind from/ knotsBaromVisibWave heightAir tempDewpointWater temp
2014-Oct-30 12:04N 40°06' W 074°02'0 0.0
2014-Oct-30 11:28N 40°06' W 074°02'4 4.5
2014-Oct-30 10:31N 40°06' W 073°57'3 0.1
2014-Oct-29 13:20N 40°07' W 073°53'7 0.5
2014-Oct-29 00:24N 40°06' W 074°02'3 4.1
2014-Oct-28 23:33N 40°07' W 073°58'8 7.8
2014-Oct-28 22:33N 40°10' W 073°48'8 7.8
2014-Oct-28 21:33N 40°13' W 073°39'8 7.8
2014-Oct-28 20:33N 40°15' W 073°29'7 6.8
2014-Oct-28 19:33N 40°18' W 073°21'3 3.2
2014-Oct-28 18:33N 40°18' W 073°17'2 1.7
2014-Oct-28 17:33N 40°18' W 073°15'1 1.2
2014-Oct-28 16:33N 40°18' W 073°16'1 1.0
2014-Oct-28 15:31N 40°18' W 073°17'1 1.2
2014-Oct-28 14:23N 40°19' W 073°16'3 2.9
2014-Oct-28 13:30N 40°18' W 073°13'1 1.2
2014-Oct-28 12:33N 40°18' W 073°14'1 1.4
2014-Oct-28 11:33N 40°19' W 073°14'2 1.6
2014-Oct-28 10:33N 40°18' W 073°13'1 1.3
2014-Oct-28 09:33N 40°18' W 073°14'0 0.4
2014-Oct-28 08:33N 40°17' W 073°14'4 4.0
2014-Oct-28 07:33N 40°15' W 073°19'5 4.7
2014-Oct-28 06:33N 40°14' W 073°24'7 7.4
2014-Oct-28 05:33N 40°12' W 073°34'8 8.4
2014-Oct-28 04:33N 40°10' W 073°44'12 8.4
2014-Oct-28 03:10N 40°06' W 073°59'  
Track history (hours):
 
Tides and Currents Weather Stations Pressure Air Temp Water Temp Dewpoint Dewpoint Depression Visibility Wind Speed Wind Dir Waves Ship Positions

Maria Noelle

Owner: MUROS INC, POINT PLEASANT, NJ. More information available from US FCC via Universal Licensing System and Coast Guard Vessel Documentation Center.

Last reported at 2014-Oct-30 12:04 UTC. Time now 2014-Oct-30 16:43 UTC.
Position N 40°06' W 074°02'.

Length 26 m.

Type: Fishing. MMSI: 367313170.

Date/timePositionNaut miles runAvg speedWind from/ knotsBaromVisibWave heightAir tempDewpointWater temp
2014-Oct-30 12:04N 40°06' W 074°02'0 0.0
2014-Oct-30 11:28N 40°06' W 074°02'4 4.5
2014-Oct-30 10:31N 40°06' W 073°57'3 0.1
2014-Oct-29 13:20N 40°07' W 073°53'7 0.5
2014-Oct-29 00:24N 40°06' W 074°02'3 4.1
2014-Oct-28 23:33N 40°07' W 073°58'8 7.8
2014-Oct-28 22:33N 40°10' W 073°48'8 7.8
2014-Oct-28 21:33N 40°13' W 073°39'8 7.8
2014-Oct-28 20:33N 40°15' W 073°29'7 6.8
2014-Oct-28 19:33N 40°18' W 073°21'3 3.2
2014-Oct-28 18:33N 40°18' W 073°17'2 1.7
2014-Oct-28 17:33N 40°18' W 073°15'1 1.2
2014-Oct-28 16:33N 40°18' W 073°16'1 1.0
2014-Oct-28 15:31N 40°18' W 073°17'1 1.2
2014-Oct-28 14:23N 40°19' W 073°16'3 2.9
2014-Oct-28 13:30N 40°18' W 073°13'1 1.2
2014-Oct-28 12:33N 40°18' W 073°14'1 1.4
2014-Oct-28 11:33N 40°19' W 073°14'2 1.6
2014-Oct-28 10:33N 40°18' W 073°13'1 1.3
2014-Oct-28 09:33N 40°18' W 073°14'0 0.4
2014-Oct-28 08:33N 40°17' W 073°14'4 4.0
2014-Oct-28 07:33N 40°15' W 073°19'5 4.7
2014-Oct-28 06:33N 40°14' W 073°24'7 7.4
2014-Oct-28 05:33N 40°12' W 073°34'8 8.4
2014-Oct-28 04:33N 40°10' W 073°44'12 8.4
2014-Oct-28 03:10N 40°06' W 073°59'  

Dump ship's entire track history